• Join FlightAware (Why Join?)
  • Login
  • US Flag 
02:49PM EDT


 

Airport Tracker/Info


-or-


 

Live Flight TrackerFlight Track Log ✈ EJA951 ✈ 16-May-2013 ✈ KBED - KTEB

Flight Track Log - Related Links

Times and Time Zones

All times are in EDT time to prevent confusion due to time zone crossing. See the EJA951 flight status page for this flight to view local times or setup timezone preferences in your user account.

Time Position Orientation Groundspeed Altitude Reporting Facility
EDT Latitude Longitude Course Direction KTS MPH feet Rate Location/Type
11:17AM 42.4667 -71.3000 246° West 175 201 1,000  Level KA90
11:19AM 42.4333 -71.4000 246° West 228 262 5,000 3,120 Climbing KA90
11:21AM 42.3864 -71.5489 247° West 248 285 11,200 3,360 Climbing Boston Center
11:22AM 42.3644 -71.6589 255° West 269 310 14,600 2,400 Climbing Boston Center
11:23AM 42.3464 -71.7603 256° West 288 331 16,000 660 Climbing Boston Center
11:24AM 42.3200 -71.8981 256° West 325 374 16,000  Level Boston Center
11:25AM 42.2933 -72.0358 255° West 368 423 16,000  Level Boston Center
11:26AM 42.2708 -72.1483 255° West 368 423 16,000  Level Boston Center
11:27AM 42.2439 -72.2914 256° West 358 412 16,000  Level Boston Center
11:28AM 42.2211 -72.4064 255° West 358 412 16,000  Level Boston Center
11:29AM 42.1961 -72.5467 257° West 358 412 16,000  Level Boston Center
11:30AM 42.1731 -72.6614 255° West 358 412 16,000  Level Boston Center
11:31AM 42.1561 -72.7958 260° West 358 412 16,000  Level Boston Center
11:32AM 42.1469 -72.9497 265° West 368 423 16,000  Level Boston Center
11:33AM 42.1403 -73.0728 266° West 373 429 16,000  Level Boston Center
11:34AM 42.1289 -73.2239 264° West 373 429 16,000 -240 Level Boston Center
11:35AM 42.1172 -73.3636 264° West 373 429 15,600 -660 Descending Boston Center
11:36AM 42.1100 -73.4867 266° West 373 429 14,700 -840 Descending Boston Center
11:37AM 42.0983 -73.6208 263° West 368 423 14,000 -420 Descending Boston Center
11:38AM 42.0883 -73.7633 265° West 362 417 13,900 -60 Descending Boston Center
11:39AM 42.0783 -73.9003 264° West 369 425 13,900  Level Boston Center
11:40AM 42.0683 -74.0342 264° West 369 425 13,900 -60 Level Boston Center
11:41AM 42.0331 -74.1647 250° West 369 425 13,800 -780 Descending Boston Center
11:42AM 41.9567 -74.2436 218° Southwest 375 432 12,400 -1,500 Descending Boston Center
11:43AM 41.8658 -74.3275 215° Southwest 380 437 10,900 -1,260 Descending Boston Center
11:44AM 41.8042 -74.3869 216° Southwest 335 386 9,900 -1,020 Descending Boston Center
11:45AM 41.7386 -74.4461 214° Southwest 283 326 8,900 -1,020 Descending Boston Center
11:46AM 41.6856 -74.4972 216° Southwest 266 306 7,900 -960 Descending Boston Center
11:47AM 41.6178 -74.5533 212° Southwest 266 306 7,000 -900 Descending Boston Center
11:48AM 41.5531 -74.5650 188° South 265 305 6,200 -360 Descending Boston Center
11:50AM 41.4000 -74.6000 190° South 264 304 6,000 -120 Descending New York TRACON
11:51AM 41.3333 -74.6000 180° South 268 308 6,000 -240 Level New York TRACON
11:52AM 41.2667 -74.6167 191° South 275 316 5,600 -660 Descending New York TRACON
11:53AM 41.1833 -74.6167 180° South 260 299 4,700 -840 Descending New York TRACON
11:54AM 41.1167 -74.6333 191° South 265 305 4,000 -360 Descending New York TRACON
11:55AM 41.0500 -74.6000 159° South 278 320 4,000 -60 Level New York TRACON
11:55AM 41.0500 -74.5167 90° East 265 305 3,900 -480 Descending New York TRACON
11:57AM 41.0500 -74.4167 90° East 261 300 3,100 -420 Descending New York TRACON
11:58AM 41.0500 -74.3167 90° East 229 264 3,100 -60 Level New York TRACON
11:59AM 41.0333 -74.2333 105° East 233 268 3,000 -240 Descending New York TRACON
12:00PM 41.0333 -74.1667 90° East 226 260 2,700 -540 Descending New York TRACON
12:01PM 41.0000 -74.1000 124° Southeast 210 242 2,000 -420 Descending New York TRACON
12:01PM 40.9667 -74.0500 114° Southeast 184 212 2,000 -420 Level New York TRACON
12:02PM 40.9162 -74.0781 114° Southeast  Level Estimated
12:04PM 40.8833 -74.0333 171° South 147 169 900  Level New York TRACON
12:05PM 40.8500 -74.0500 180° South  Level FlightAware Approximate